Flight Track Log - Related Links

Times and Time Zones

All times are in EST time to prevent confusion due to time zone crossing. See the LYM752 flight status page for this flight to view local times or setup timezone preferences in your user account.

Time Position Orientation Groundspeed Altitude Reporting Facility
EST Latitude Longitude Course Direction KTS MPH feet Rate Location/Type
Thu 11:31:22 AM 39.2531 -101.0122 172° South 141 162 7,900  Level Denver Center
Thu 11:32:24 AM 39.2053 -101.0031 172° South 153 176 8,800 484 Climbing Denver Center
Thu 11:33:26 AM 39.1544 -100.9925 171° South 186 214 8,900 48 Climbing Denver Center
Thu 11:34:28 AM 39.0889 -100.9750 168° South 209 241 8,900  Level Denver Center
Thu 11:35:30 AM 39.0328 -100.9581 167° South 213 245 8,900  Level Denver Center
Thu 11:36:32 AM 38.9658 -100.9428 170° South 214 246 8,900  Level Denver Center
Thu 11:37:34 AM 38.9097 -100.9286 169° South 214 246 8,900  Level Denver Center
Thu 11:38:36 AM 38.8442 -100.9167 172° South 213 245 8,900  Level Denver Center
Thu 11:39:38 AM 38.7881 -100.9022 169° South 213 245 8,900  Level Denver Center
Thu 11:40:40 AM 38.7228 -100.8911 172° South 213 245 8,900  Level Denver Center
Thu 11:41:42 AM 38.6675 -100.8800 171° South 211 243 8,900  Level Denver Center
Thu 11:42:44 AM 38.6125 -100.8664 169° South 210 242 8,900 -48 Level Denver Center
Thu 11:43:46 AM 38.5486 -100.8508 169° South 209 241 8,800  Descending Denver Center
Thu 11:44:49 AM 38.4942 -100.8372 169° South 209 241 8,900 48 Climbing Denver Center
Thu 11:45:51 AM 38.4306 -100.8289 174° South 207 238 8,900  Level Denver Center
Thu 11:46:53 AM 38.3764 -100.8128 167° South 207 238 8,900  Level Denver Center
Thu 11:47:55 AM 38.3133 -100.7944 167° South 207 238 8,900 -145 Level Denver Center
Thu 11:48:57 AM 38.2589 -100.7814 169° South 207 238 8,600 -581 Descending Denver Center
Thu 11:49:59 AM 38.1914 -100.7667 170° South 214 246 7,700 -823 Descending Denver Center
Thu 11:51:01 AM 38.1331 -100.7486 166° South 220 253 6,900 -797 Descending Denver Center
Thu 11:52:22 AM 38.0542 -100.7153 162° South 211 243 5,800 -761 Descending Kansas City Center
Thu 11:53:23 AM 38.0019 -100.6950 163° South 207 238 5,100 -732 Descending Kansas City Center
Thu 11:54:25 AM 37.9517 -100.6747 162° South 203 234 4,300 -774 Descending Kansas City Center
Thu 11:55:27 AM 37.9131 -100.6953 203° Southwest 155 178 3,500 -774 Descending Kansas City Center

Login

Don't have an account? Register now (free) for customized features, flight alerts, and more!